createdAt,value
2018-06-09T00:00:42.199Z,97055.00
2018-06-09T00:03:24.168Z,97050.00
2018-06-09T00:06:06.341Z,97048.00
2018-06-09T00:08:47.657Z,97041.00
2018-06-09T00:11:28.595Z,97038.00
2018-06-09T00:14:09.685Z,97026.00
2018-06-09T00:16:51.202Z,97033.00
2018-06-09T00:19:32.661Z,97031.00
2018-06-09T00:22:13.927Z,97038.00
2018-06-09T00:24:55.584Z,97028.00
2018-06-09T00:27:36.760Z,97029.00
2018-06-09T00:30:18.045Z,97015.00
2018-06-09T00:32:59.413Z,97026.00
2018-06-09T00:35:40.736Z,97018.00
2018-06-09T00:38:22.793Z,97015.00
2018-06-09T00:41:04.097Z,97016.00
2018-06-09T00:43:45.551Z,97015.00
2018-06-09T00:46:26.908Z,97010.00
2018-06-09T00:49:08.361Z,97017.00
2018-06-09T00:51:49.704Z,97013.00
2018-06-09T00:54:31.202Z,97021.00
2018-06-09T00:57:12.615Z,97015.00
2018-06-09T00:59:54.192Z,97016.00
2018-06-09T01:02:35.512Z,97021.00
2018-06-09T01:05:16.837Z,97027.00
2018-06-09T01:07:58.270Z,97032.00
2018-06-09T01:10:39.444Z,97030.00
2018-06-09T01:13:21.230Z,97032.00
2018-06-09T01:16:02.436Z,97029.00
2018-06-09T01:18:43.767Z,97038.00
2018-06-09T01:21:25.589Z,97032.00
2018-06-09T01:24:07.725Z,97042.00
2018-06-09T01:26:49.052Z,97034.00
2018-06-09T01:29:31.079Z,97023.00
2018-06-09T01:32:12.929Z,97027.00
2018-06-09T01:34:54.248Z,97030.00
2018-06-09T01:37:35.744Z,97022.00
2018-06-09T01:40:17.932Z,97013.00
2018-06-09T01:42:58.937Z,97012.00
2018-06-09T01:45:40.037Z,97006.00
2018-06-09T01:48:22.303Z,97022.00
2018-06-09T01:51:03.598Z,97017.00
2018-06-09T01:53:44.880Z,97007.00
2018-06-09T01:56:26.724Z,97008.00
2018-06-09T02:02:30.409Z,96992.00
2018-06-09T02:05:12.083Z,96989.00
2018-06-09T02:07:53.475Z,96978.00
2018-06-09T02:10:34.771Z,96981.00
2018-06-09T02:13:15.913Z,96981.00
2018-06-09T02:15:57.319Z,96970.00
2018-06-09T02:18:38.478Z,96976.00
2018-06-09T02:21:20.799Z,96972.00
2018-06-09T02:24:02.632Z,96973.00
2018-06-09T02:26:44.221Z,96969.00
2018-06-09T02:29:25.685Z,96969.00
2018-06-09T02:32:07.487Z,96969.00
2018-06-09T02:34:49.763Z,96958.00
2018-06-09T02:37:31.183Z,96962.00
2018-06-09T02:40:12.739Z,96951.00
2018-06-09T02:42:54.637Z,96943.00
2018-06-09T02:45:35.948Z,96950.00
2018-06-09T02:48:17.372Z,96950.00
2018-06-09T02:50:59.458Z,96954.00
2018-06-09T02:53:40.939Z,96952.00
2018-06-09T02:56:22.584Z,96959.00
2018-06-09T02:59:03.979Z,96954.00
2018-06-09T03:01:45.380Z,96957.00
2018-06-09T03:04:26.689Z,96960.00
2018-06-09T03:07:08.001Z,96954.00
2018-06-09T03:09:49.690Z,96957.00
2018-06-09T03:12:31.235Z,96961.00
2018-06-09T03:15:12.404Z,96953.00
2018-06-09T03:17:54.125Z,96945.00
2018-06-09T03:20:35.407Z,96945.00
2018-06-09T03:23:16.677Z,96933.00
2018-06-09T03:25:57.985Z,96935.00
2018-06-09T03:28:39.235Z,96940.00
2018-06-09T03:31:21.276Z,96929.00
2018-06-09T03:34:02.523Z,96926.00
2018-06-09T03:36:43.837Z,96929.00
2018-06-09T03:39:25.381Z,96937.00
2018-06-09T03:42:06.829Z,96939.00
2018-06-09T03:44:48.148Z,96930.00
2018-06-09T03:47:29.544Z,96925.00
2018-06-09T03:50:10.857Z,96926.00
2018-06-09T03:52:52.508Z,96928.00
2018-06-09T03:55:33.933Z,96928.00
2018-06-09T03:58:15.940Z,96942.00
2018-06-09T04:00:57.528Z,96940.00
2018-06-09T04:03:38.827Z,96935.00
2018-06-09T04:06:20.832Z,96935.00
2018-06-09T04:09:01.982Z,96933.00
2018-06-09T04:11:43.143Z,96947.00
2018-06-09T04:14:24.799Z,96956.00
2018-06-09T04:17:06.109Z,96952.00
2018-06-09T04:19:47.393Z,96958.00
2018-06-09T04:22:29.568Z,96965.00
2018-06-09T04:25:10.903Z,96980.00
2018-06-09T04:27:52.482Z,96982.00
2018-06-09T04:30:33.717Z,96974.00
2018-06-09T04:33:15.395Z,96971.00
2018-06-09T04:35:56.736Z,96973.00
2018-06-09T04:38:38.060Z,96973.00
2018-06-09T04:41:19.888Z,96967.00
2018-06-09T04:44:01.082Z,96964.00
2018-06-09T04:46:42.247Z,96971.00
2018-06-09T04:49:24.031Z,96989.00
2018-06-09T04:52:05.420Z,96985.00
2018-06-09T04:54:46.683Z,96985.00
2018-06-09T04:57:27.995Z,96990.00
2018-06-09T05:00:09.187Z,96991.00
2018-06-09T05:02:51.334Z,97002.00
2018-06-09T05:05:32.723Z,97005.00
2018-06-09T05:08:13.932Z,97010.00
2018-06-09T05:10:55.287Z,97002.00
2018-06-09T05:13:36.559Z,97013.00
2018-06-09T05:16:18.086Z,97012.00
2018-06-09T05:18:59.496Z,97007.00
2018-06-09T05:21:40.808Z,97004.00
2018-06-09T05:24:22.483Z,97005.00
2018-06-09T05:27:04.271Z,97013.00
2018-06-09T05:29:45.623Z,97018.00
2018-06-09T05:32:26.967Z,97017.00
2018-06-09T05:35:08.410Z,97015.00
2018-06-09T05:37:50.721Z,97019.00
2018-06-09T05:40:32.319Z,97023.00
2018-06-09T05:43:13.597Z,97018.00
2018-06-09T05:45:55.465Z,97012.00
2018-06-09T05:48:36.891Z,97015.00
2018-06-09T05:51:18.201Z,97017.00
2018-06-09T05:53:59.520Z,97018.00
2018-06-09T05:56:40.964Z,97012.00
2018-06-09T05:59:22.457Z,97009.00
2018-06-09T06:02:04.000Z,97005.00
2018-06-09T06:04:45.444Z,97013.00
2018-06-09T06:07:26.828Z,97010.00
2018-06-09T06:10:08.556Z,97018.00
2018-06-09T06:12:50.638Z,97017.00
2018-06-09T06:15:32.466Z,97020.00
2018-06-09T06:18:14.013Z,97018.00
2018-06-09T06:20:55.360Z,97021.00
2018-06-09T06:23:39.990Z,97017.00
2018-06-09T06:26:22.670Z,97025.00
2018-06-09T06:29:03.938Z,97030.00
2018-06-09T06:31:59.945Z,97024.00
2018-06-09T06:34:41.334Z,97027.00
2018-06-09T06:37:23.359Z,97029.00
2018-06-09T06:40:05.651Z,97035.00
2018-06-09T06:42:46.813Z,97035.00
2018-06-09T06:45:28.097Z,97038.00
2018-06-09T06:48:09.449Z,97041.00
2018-06-09T06:50:51.195Z,97041.00
2018-06-09T06:53:32.608Z,97039.00
2018-06-09T06:56:14.028Z,97035.00
2018-06-09T06:58:55.329Z,97027.00
2018-06-09T07:01:36.643Z,97033.00
2018-06-09T07:04:18.013Z,97039.00
2018-06-09T07:06:59.432Z,97032.00
2018-06-09T07:09:40.577Z,97019.00
2018-06-09T07:12:22.628Z,97021.00
2018-06-09T07:15:04.129Z,97011.00
2018-06-09T07:17:45.459Z,97010.00
2018-06-09T07:20:26.808Z,97012.00
2018-06-09T07:23:08.117Z,97010.00
2018-06-09T07:25:49.643Z,97001.00
2018-06-09T07:28:31.044Z,96992.00
2018-06-09T07:31:13.496Z,96983.00
2018-06-09T07:33:55.276Z,96980.00
2018-06-09T07:36:36.673Z,96978.00
2018-06-09T07:39:18.069Z,96971.00
2018-06-09T07:41:59.526Z,96966.00
2018-06-09T07:44:41.015Z,96958.00
2018-06-09T07:47:22.560Z,96947.00
2018-06-09T07:50:03.939Z,96958.00
2018-06-09T07:52:45.537Z,96955.00
2018-06-09T07:55:27.093Z,96963.00
2018-06-09T07:58:08.357Z,96972.00
2018-06-09T08:00:50.720Z,96967.00
2018-06-09T08:03:32.205Z,96961.00
2018-06-09T08:06:13.695Z,96965.00
2018-06-09T08:08:55.464Z,96958.00
2018-06-09T08:11:37.652Z,96949.00
2018-06-09T08:14:20.651Z,96943.00
2018-06-09T08:17:02.231Z,96934.00
2018-06-09T08:19:44.340Z,96925.00
2018-06-09T08:22:25.636Z,96916.00
2018-06-09T08:25:06.932Z,96909.00
2018-06-09T08:27:48.255Z,96922.00
2018-06-09T08:30:30.111Z,96928.00
2018-06-09T08:33:11.716Z,96929.00
2018-06-09T08:35:53.652Z,96927.00
2018-06-09T08:38:35.556Z,96926.00
2018-06-09T08:41:17.115Z,96936.00
2018-06-09T08:43:58.505Z,96956.00
2018-06-09T08:46:54.440Z,96958.00
2018-06-09T08:49:35.757Z,96947.00
2018-06-09T08:52:17.262Z,96949.00
2018-06-09T08:54:58.711Z,96946.00
2018-06-09T08:57:40.012Z,96954.00
2018-06-09T09:00:22.779Z,96959.00
2018-06-09T09:03:04.055Z,96961.00
2018-06-09T09:05:45.560Z,96964.00
2018-06-09T09:08:26.764Z,96966.00
2018-06-09T09:11:08.350Z,96961.00
2018-06-09T09:13:50.339Z,96964.00
2018-06-09T09:16:31.753Z,96974.00
2018-06-09T09:19:13.161Z,96978.00
2018-06-09T09:21:55.354Z,96989.00
2018-06-09T09:24:36.915Z,96987.00
2018-06-09T09:27:18.219Z,96986.00
2018-06-09T09:29:59.671Z,96996.00
2018-06-09T09:32:40.978Z,96989.00
2018-06-09T09:35:22.943Z,96990.00
2018-06-09T09:38:04.414Z,96985.00
2018-06-09T09:40:45.768Z,96996.00
2018-06-09T09:43:27.087Z,97002.00
2018-06-09T09:46:08.243Z,96997.00
2018-06-09T09:48:49.963Z,96992.00
2018-06-09T09:51:31.696Z,96985.00
2018-06-09T09:54:13.163Z,96980.00
2018-06-09T09:56:55.975Z,96985.00
2018-06-09T09:59:37.279Z,96972.00
2018-06-09T10:02:18.610Z,96971.00
2018-06-09T10:05:00.064Z,96971.00
2018-06-09T10:07:41.498Z,96963.00
2018-06-09T10:10:23.759Z,96965.00
2018-06-09T10:13:05.343Z,96968.00
2018-06-09T10:15:46.726Z,96963.00
2018-06-09T10:18:27.930Z,96964.00
2018-06-09T10:21:09.460Z,96962.00
2018-06-09T10:23:51.608Z,96972.00
2018-06-09T10:26:32.903Z,96977.00
2018-06-09T10:29:14.199Z,96976.00
2018-06-09T10:31:55.648Z,96977.00
2018-06-09T10:34:37.060Z,96972.00
2018-06-09T10:37:18.360Z,96979.00
2018-06-09T10:39:59.736Z,96974.00
2018-06-09T10:42:41.060Z,96978.00
2018-06-09T10:45:22.731Z,96981.00
2018-06-09T10:48:04.015Z,96990.00
2018-06-09T10:50:45.320Z,96984.00
2018-06-09T10:53:26.489Z,96978.00
2018-06-09T10:56:07.826Z,96974.00
2018-06-09T10:58:49.847Z,96983.00
2018-06-09T11:01:31.242Z,96978.00
2018-06-09T11:04:12.571Z,96971.00
2018-06-09T11:06:54.239Z,96968.00
2018-06-09T11:09:35.540Z,96971.00
2018-06-09T11:12:16.992Z,96962.00
2018-06-09T11:14:59.001Z,96956.00
2018-06-09T11:17:40.633Z,96956.00
2018-06-09T11:20:22.818Z,96933.00
2018-06-09T11:23:04.135Z,96940.00
2018-06-09T11:25:46.100Z,96939.00
2018-06-09T11:28:27.485Z,96933.00
2018-06-09T11:31:08.828Z,96924.00
2018-06-09T11:33:51.019Z,96932.00
2018-06-09T11:36:32.361Z,96935.00
2018-06-09T11:39:13.968Z,96942.00
2018-06-09T11:41:55.606Z,96934.00
2018-06-09T11:44:37.493Z,96930.00
2018-06-09T11:47:18.848Z,96926.00
2018-06-09T11:50:00.371Z,96914.00
2018-06-09T11:52:42.009Z,96910.00
2018-06-09T11:55:23.534Z,96894.00
2018-06-09T11:58:04.968Z,96891.00
2018-06-09T12:00:46.176Z,96885.00
2018-06-09T12:03:27.818Z,96897.00
2018-06-09T12:06:09.248Z,96896.00
2018-06-09T12:08:51.689Z,96903.00
2018-06-09T12:11:33.040Z,96895.00
2018-06-09T12:14:14.499Z,96900.00
2018-06-09T12:16:56.007Z,96897.00
2018-06-09T12:19:37.363Z,96894.00
2018-06-09T12:22:18.658Z,96896.00
2018-06-09T12:25:00.209Z,96886.00
2018-06-09T12:27:41.700Z,96885.00
2018-06-09T12:30:23.552Z,96893.00
2018-06-09T12:33:05.039Z,96886.00
2018-06-09T12:35:46.323Z,96899.00
2018-06-09T12:38:27.765Z,96898.00
2018-06-09T12:41:09.179Z,96886.00
2018-06-09T12:43:51.580Z,96882.00
2018-06-09T12:46:33.256Z,96886.00
2018-06-09T12:49:14.671Z,96869.00
2018-06-09T12:51:56.148Z,96878.00
2018-06-09T12:54:37.295Z,96866.00
2018-06-09T12:57:18.624Z,96859.00
2018-06-09T13:00:00.142Z,96874.00
2018-06-09T13:02:41.833Z,96885.00
2018-06-09T13:05:23.544Z,96885.00
2018-06-09T13:08:04.974Z,96888.00
2018-06-09T13:10:47.129Z,96885.00
2018-06-09T13:13:28.520Z,96904.00
2018-06-09T13:16:09.913Z,96892.00
2018-06-09T13:18:52.848Z,96887.00
2018-06-09T13:21:34.404Z,96890.00
2018-06-09T13:24:15.839Z,96904.00
2018-06-09T13:26:57.366Z,96907.00
2018-06-09T13:29:39.080Z,96908.00
2018-06-09T13:32:21.595Z,96918.00
2018-06-09T13:35:03.025Z,96916.00
2018-06-09T13:37:44.408Z,96923.00
2018-06-09T13:40:25.844Z,96913.00
2018-06-09T13:43:07.183Z,96918.00
2018-06-09T13:45:48.694Z,96930.00
2018-06-09T13:48:30.185Z,96924.00
2018-06-09T13:51:11.400Z,96924.00
2018-06-09T13:53:52.892Z,96923.00
2018-06-09T13:56:34.041Z,96913.00
2018-06-09T13:59:15.440Z,96914.00
2018-06-09T14:01:56.924Z,96917.00
2018-06-09T14:04:38.237Z,96909.00
2018-06-09T14:07:20.017Z,96903.00
2018-06-09T14:10:01.328Z,96918.00
2018-06-09T14:12:42.744Z,96915.00
2018-06-09T14:15:25.054Z,96909.00
2018-06-09T14:18:06.612Z,96900.00
2018-06-09T14:20:47.990Z,96889.00
2018-06-09T14:23:29.608Z,96896.00
2018-06-09T14:26:11.109Z,96903.00
2018-06-09T14:28:52.887Z,96904.00
2018-06-09T14:31:34.223Z,96912.00
2018-06-09T14:34:15.641Z,96917.00
2018-06-09T14:36:57.021Z,96928.00
2018-06-09T14:39:38.705Z,96924.00
2018-06-09T14:42:21.255Z,96924.00
2018-06-09T14:45:02.644Z,96924.00
2018-06-09T14:47:43.956Z,96941.00
2018-06-09T14:50:26.484Z,96940.00
2018-06-09T14:53:08.072Z,96946.00
2018-06-09T14:55:50.099Z,96942.00
2018-06-09T14:58:31.490Z,96962.00
2018-06-09T15:01:13.524Z,96937.00
2018-06-09T15:03:55.416Z,96947.00
2018-06-09T15:06:36.848Z,96948.00
2018-06-09T15:09:18.251Z,96933.00
2018-06-09T15:11:59.655Z,96925.00
2018-06-09T15:14:41.180Z,96913.00
2018-06-09T15:17:22.848Z,96907.00
2018-06-09T15:20:04.292Z,96907.00
2018-06-09T15:22:45.675Z,96904.00
2018-06-09T15:25:27.012Z,96905.00
2018-06-09T15:28:08.388Z,96906.00
2018-06-09T15:30:49.980Z,96903.00
2018-06-09T15:33:32.433Z,96913.00
2018-06-09T15:36:14.979Z,96919.00
2018-06-09T15:38:56.463Z,96917.00
2018-06-09T15:41:38.343Z,96919.00
2018-06-09T15:44:20.275Z,96926.00
2018-06-09T15:47:01.863Z,96918.00
2018-06-09T15:49:43.313Z,96928.00
2018-06-09T15:52:25.211Z,96924.00
2018-06-09T15:55:06.679Z,96933.00
2018-06-09T15:57:48.050Z,96934.00
2018-06-09T16:00:29.740Z,96935.00
2018-06-09T16:03:11.035Z,96935.00
2018-06-09T16:05:52.858Z,96933.00
2018-06-09T16:08:41.168Z,96938.00
2018-06-09T16:11:22.828Z,96952.00
2018-06-09T16:14:04.553Z,96939.00
2018-06-09T16:16:45.906Z,96954.00
2018-06-09T16:19:27.240Z,96956.00
2018-06-09T16:22:08.594Z,96961.00
2018-06-09T16:24:55.437Z,96962.00
2018-06-09T16:27:36.886Z,96964.00
2018-06-09T16:30:18.189Z,96958.00
2018-06-09T16:33:00.337Z,96956.00
2018-06-09T16:35:41.856Z,96963.00
2018-06-09T16:38:23.374Z,96966.00
2018-06-09T16:41:04.683Z,96963.00
2018-06-09T16:43:46.035Z,96956.00
2018-06-09T16:46:27.553Z,96963.00
2018-06-09T16:49:08.988Z,96964.00
2018-06-09T16:51:51.434Z,96966.00
2018-06-09T16:54:33.292Z,96965.00
2018-06-09T16:57:14.757Z,96969.00
2018-06-09T16:59:56.085Z,96983.00
2018-06-09T17:02:37.505Z,96980.00
2018-06-09T17:05:18.997Z,96974.00
2018-06-09T17:08:00.481Z,96972.00
2018-06-09T17:10:41.739Z,96976.00
2018-06-09T17:13:23.298Z,96987.00
2018-06-09T17:16:04.581Z,96986.00
2018-06-09T17:18:45.772Z,96974.00
2018-06-09T17:21:27.210Z,96990.00
2018-06-09T17:24:08.602Z,96988.00
2018-06-09T17:26:50.522Z,97001.00
2018-06-09T17:29:31.853Z,97001.00
2018-06-09T17:32:13.586Z,96987.00
2018-06-09T17:34:55.293Z,96991.00
2018-06-09T17:37:36.661Z,96990.00
2018-06-09T17:40:18.209Z,96986.00
2018-06-09T17:43:00.047Z,96981.00
2018-06-09T17:45:41.644Z,96993.00
2018-06-09T17:48:23.283Z,96987.00
2018-06-09T17:51:04.613Z,96986.00
2018-06-09T17:53:46.080Z,96992.00
2018-06-09T17:56:27.435Z,96993.00
2018-06-09T17:59:08.884Z,96989.00
2018-06-09T18:01:50.550Z,96988.00
2018-06-09T18:04:31.867Z,96980.00
2018-06-09T18:07:13.340Z,96977.00
2018-06-09T18:09:54.703Z,96983.00
2018-06-09T18:12:36.162Z,96986.00
2018-06-09T18:15:17.668Z,96978.00
2018-06-09T18:17:58.991Z,96973.00
2018-06-09T18:20:40.375Z,96968.00
2018-06-09T18:23:23.279Z,96974.00
2018-06-09T18:26:04.784Z,96972.00
2018-06-09T18:28:47.150Z,96966.00
2018-06-09T18:31:28.573Z,96973.00
2018-06-09T18:34:09.974Z,96961.00
2018-06-09T18:36:52.103Z,96971.00
2018-06-09T18:39:33.519Z,96960.00
2018-06-09T18:42:15.141Z,96960.00
2018-06-09T18:44:57.177Z,96957.00
2018-06-09T18:47:38.516Z,96955.00
2018-06-09T18:50:25.714Z,96962.00
2018-06-09T18:54:11.152Z,96972.00
2018-06-09T18:56:53.284Z,96972.00
2018-06-09T18:59:35.670Z,96972.00
2018-06-09T19:02:50.402Z,96965.00
2018-06-09T19:05:31.737Z,96969.00
2018-06-09T19:08:13.347Z,96966.00
2018-06-09T19:10:55.407Z,96967.00
2018-06-09T19:13:36.973Z,96975.00
2018-06-09T19:16:18.373Z,96969.00
2018-06-09T19:19:00.404Z,96967.00
2018-06-09T19:21:41.775Z,96961.00
2018-06-09T19:24:23.213Z,96954.00
2018-06-09T19:27:04.939Z,96964.00
2018-06-09T19:29:47.763Z,96963.00
2018-06-09T19:32:28.796Z,96977.00
2018-06-09T19:35:10.252Z,96968.00
2018-06-09T19:37:52.516Z,96977.00
2018-06-09T19:40:33.701Z,96966.00
2018-06-09T19:43:15.114Z,96973.00
2018-06-09T19:45:56.802Z,96975.00
2018-06-09T19:48:38.225Z,96973.00
2018-06-09T19:51:20.487Z,96970.00
2018-06-09T19:54:02.006Z,96978.00
2018-06-09T19:56:43.328Z,96980.00
2018-06-09T19:59:24.636Z,96967.00
2018-06-09T20:02:06.023Z,96975.00
2018-06-09T20:04:47.556Z,96976.00
2018-06-09T20:07:28.928Z,96972.00
2018-06-09T20:10:10.471Z,96971.00
2018-06-09T20:12:53.189Z,96974.00
2018-06-09T20:15:34.541Z,96982.00
2018-06-09T20:18:16.261Z,96974.00
2018-06-09T20:20:57.732Z,96982.00
2018-06-09T20:23:39.197Z,96989.00
2018-06-09T20:26:21.316Z,96987.00
2018-06-09T20:29:03.423Z,96986.00
2018-06-09T20:31:44.931Z,96982.00
2018-06-09T20:34:26.156Z,96978.00
2018-06-09T20:37:07.595Z,96983.00
2018-06-09T20:39:48.942Z,96980.00
2018-06-09T20:42:30.472Z,96979.00
2018-06-09T20:45:11.962Z,96979.00
2018-06-09T20:47:53.418Z,96979.00
2018-06-09T20:50:34.742Z,96980.00
2018-06-09T20:53:17.277Z,96976.00
2018-06-09T20:55:58.644Z,96978.00
2018-06-09T20:58:40.800Z,96981.00
2018-06-09T21:01:23.921Z,96981.00
2018-06-09T21:04:05.383Z,96978.00
2018-06-09T21:06:46.766Z,96983.00
2018-06-09T21:09:28.389Z,96982.00
2018-06-09T21:12:09.908Z,96974.00
2018-06-09T21:14:52.133Z,96978.00
2018-06-09T21:17:33.990Z,96980.00
2018-06-09T21:20:15.429Z,96977.00
2018-06-09T21:22:56.740Z,96976.00
2018-06-09T21:25:38.073Z,96974.00
2018-06-09T21:28:26.047Z,96973.00
2018-06-09T21:31:12.917Z,96968.00
2018-06-09T21:34:11.194Z,96979.00
2018-06-09T21:36:57.881Z,96976.00
2018-06-09T21:39:44.452Z,96972.00
2018-06-09T21:42:26.656Z,96963.00
2018-06-09T21:45:10.034Z,96965.00
2018-06-09T21:47:52.254Z,96963.00
2018-06-09T21:50:33.601Z,96955.00
2018-06-09T21:53:15.252Z,96955.00
2018-06-09T21:55:56.881Z,96952.00
2018-06-09T21:58:38.264Z,96956.00
2018-06-09T22:01:19.600Z,96953.00
2018-06-09T22:04:01.150Z,96947.00
2018-06-09T22:06:42.683Z,96942.00
2018-06-09T22:09:24.377Z,96944.00
2018-06-09T22:12:05.795Z,96943.00
2018-06-09T22:14:47.269Z,96941.00
2018-06-09T22:17:28.724Z,96940.00
2018-06-09T22:20:10.204Z,96944.00
2018-06-09T22:22:52.111Z,96944.00
2018-06-09T22:25:39.215Z,96942.00
2018-06-09T22:28:20.488Z,96939.00
2018-06-09T22:31:01.876Z,96933.00
2018-06-09T22:33:43.594Z,96930.00
2018-06-09T22:36:25.736Z,96929.00
2018-06-09T22:39:08.446Z,96931.00
2018-06-09T22:41:51.502Z,96927.00
2018-06-09T22:44:33.080Z,96927.00
2018-06-09T22:47:14.446Z,96931.00
2018-06-09T22:49:56.130Z,96923.00
2018-06-09T22:52:37.504Z,96920.00
2018-06-09T22:55:19.026Z,96925.00
2018-06-09T22:58:00.911Z,96926.00
2018-06-09T23:00:49.515Z,96912.00
2018-06-09T23:03:30.932Z,96915.00
2018-06-09T23:06:12.291Z,96907.00
2018-06-09T23:08:54.382Z,96907.00
2018-06-09T23:11:35.924Z,96907.00
2018-06-09T23:14:17.333Z,96905.00
2018-06-09T23:16:58.672Z,96897.00
2018-06-09T23:19:40.017Z,96893.00
2018-06-09T23:22:22.116Z,96900.00
2018-06-09T23:25:04.221Z,96891.00
2018-06-09T23:27:45.531Z,96886.00
2018-06-09T23:30:27.089Z,96886.00
2018-06-09T23:33:08.555Z,96889.00
2018-06-09T23:35:50.505Z,96887.00
2018-06-09T23:38:32.048Z,96882.00
2018-06-09T23:41:13.731Z,96897.00
2018-06-09T23:43:55.550Z,96896.00
2018-06-09T23:46:36.791Z,96893.00
2018-06-09T23:49:18.456Z,96889.00
2018-06-09T23:52:00.650Z,96889.00
2018-06-09T23:54:42.162Z,96896.00
2018-06-09T23:57:24.491Z,96899.00
